sensor_id;sensor_type;location;lat;lon;timestamp;P1;durP1;ratioP1;P2;durP2;ratioP2
54193;SDS011;40102;50.906;6.972;2024-03-23T00:55:33;9.13;;;3.70;;
54193;SDS011;40102;50.906;6.972;2024-03-23T00:57:58;7.65;;;3.40;;
54193;SDS011;40102;50.906;6.972;2024-03-23T01:00:24;8.10;;;3.13;;
54193;SDS011;40102;50.906;6.972;2024-03-23T01:02:49;9.13;;;4.03;;
54193;SDS011;40102;50.906;6.972;2024-03-23T01:05:14;9.50;;;3.35;;
54193;SDS011;40102;50.906;6.972;2024-03-23T01:07:40;11.60;;;4.00;;
54193;SDS011;40102;50.906;6.972;2024-03-23T01:10:05;9.02;;;3.28;;
54193;SDS011;40102;50.906;6.972;2024-03-23T01:12:31;9.45;;;4.28;;
54193;SDS011;40102;50.906;6.972;2024-03-23T01:14:56;7.45;;;3.22;;
54193;SDS011;40102;50.906;6.972;2024-03-23T01:17:21;7.80;;;3.08;;
54193;SDS011;40102;50.906;6.972;2024-03-23T01:19:47;9.88;;;3.70;;
54193;SDS011;40102;50.906;6.972;2024-03-23T01:22:12;9.40;;;3.13;;
54193;SDS011;40102;50.906;6.972;2024-03-23T01:24:38;7.88;;;2.88;;
54193;SDS011;40102;50.906;6.972;2024-03-23T01:27:03;8.63;;;3.10;;
54193;SDS011;40102;50.906;6.972;2024-03-23T01:29:29;10.25;;;3.47;;
54193;SDS011;40102;50.906;6.972;2024-03-23T01:31:54;6.82;;;2.63;;
54193;SDS011;40102;50.906;6.972;2024-03-23T01:34:20;6.43;;;2.75;;
54193;SDS011;40102;50.906;6.972;2024-03-23T01:36:46;3.92;;;1.60;;
54193;SDS011;40102;50.906;6.972;2024-03-23T01:39:11;2.92;;;1.50;;
54193;SDS011;40102;50.906;6.972;2024-03-23T01:41:37;4.38;;;2.05;;
54193;SDS011;40102;50.906;6.972;2024-03-23T01:44:05;5.72;;;1.35;;
54193;SDS011;40102;50.906;6.972;2024-03-23T01:46:34;4.05;;;1.20;;
54193;SDS011;40102;50.906;6.972;2024-03-23T01:49:01;4.15;;;1.20;;
54193;SDS011;40102;50.906;6.972;2024-03-23T01:51:27;5.38;;;1.35;;
54193;SDS011;40102;50.906;6.972;2024-03-23T01:53:57;3.90;;;1.58;;
54193;SDS011;40102;50.906;6.972;2024-03-23T01:56:27;3.15;;;1.55;;
54193;SDS011;40102;50.906;6.972;2024-03-23T01:58:53;4.78;;;1.67;;
54193;SDS011;40102;50.906;6.972;2024-03-23T02:01:19;3.25;;;1.20;;
54193;SDS011;40102;50.906;6.972;2024-03-23T02:03:44;3.78;;;1.40;;
54193;SDS011;40102;50.906;6.972;2024-03-23T02:06:09;4.45;;;1.45;;
54193;SDS011;40102;50.906;6.972;2024-03-23T02:08:35;4.63;;;1.40;;
54193;SDS011;40102;50.906;6.972;2024-03-23T02:11:00;4.13;;;1.63;;
54193;SDS011;40102;50.906;6.972;2024-03-23T02:13:29;4.40;;;1.85;;
54193;SDS011;40102;50.906;6.972;2024-03-23T02:15:54;3.38;;;1.38;;
54193;SDS011;40102;50.906;6.972;2024-03-23T02:18:19;5.60;;;1.52;;
54193;SDS011;40102;50.906;6.972;2024-03-23T02:20:45;4.88;;;1.70;;
54193;SDS011;40102;50.906;6.972;2024-03-23T02:23:13;4.75;;;1.50;;
54193;SDS011;40102;50.906;6.972;2024-03-23T02:25:39;3.63;;;1.60;;
54193;SDS011;40102;50.906;6.972;2024-03-23T02:28:05;5.85;;;1.85;;
54193;SDS011;40102;50.906;6.972;2024-03-23T02:30:31;2.35;;;1.25;;
54193;SDS011;40102;50.906;6.972;2024-03-23T02:32:56;4.65;;;1.73;;
54193;SDS011;40102;50.906;6.972;2024-03-23T02:35:21;3.35;;;1.40;;
54193;SDS011;40102;50.906;6.972;2024-03-23T02:37:47;5.32;;;1.75;;
54193;SDS011;40102;50.906;6.972;2024-03-23T02:40:16;6.38;;;1.60;;
54193;SDS011;40102;50.906;6.972;2024-03-23T02:42:42;6.50;;;1.45;;
54193;SDS011;40102;50.906;6.972;2024-03-23T02:45:07;5.13;;;1.67;;
54193;SDS011;40102;50.906;6.972;2024-03-23T02:47:33;5.10;;;1.35;;
54193;SDS011;40102;50.906;6.972;2024-03-23T02:49:58;2.80;;;1.20;;
54193;SDS011;40102;50.906;6.972;2024-03-23T02:52:24;5.65;;;1.30;;
54193;SDS011;40102;50.906;6.972;2024-03-23T02:54:49;5.45;;;1.40;;
54193;SDS011;40102;50.906;6.972;2024-03-23T02:57:15;4.45;;;0.95;;
54193;SDS011;40102;50.906;6.972;2024-03-23T02:59:40;1.90;;;0.80;;
54193;SDS011;40102;50.906;6.972;2024-03-23T03:02:06;3.28;;;0.80;;
54193;SDS011;40102;50.906;6.972;2024-03-23T03:04:31;2.55;;;0.85;;
54193;SDS011;40102;50.906;6.972;2024-03-23T03:06:57;5.13;;;1.40;;
54193;SDS011;40102;50.906;6.972;2024-03-23T03:09:23;4.60;;;1.15;;
54193;SDS011;40102;50.906;6.972;2024-03-23T03:11:48;4.50;;;1.80;;
54193;SDS011;40102;50.906;6.972;2024-03-23T03:14:14;3.72;;;0.93;;
54193;SDS011;40102;50.906;6.972;2024-03-23T03:16:39;3.00;;;1.13;;
54193;SDS011;40102;50.906;6.972;2024-03-23T03:19:05;3.13;;;1.27;;
54193;SDS011;40102;50.906;6.972;2024-03-23T03:21:31;4.55;;;1.10;;
54193;SDS011;40102;50.906;6.972;2024-03-23T03:23:57;3.97;;;1.00;;
54193;SDS011;40102;50.906;6.972;2024-03-23T03:26:23;3.78;;;1.33;;
54193;SDS011;40102;50.906;6.972;2024-03-23T03:28:49;5.43;;;1.42;;
54193;SDS011;40102;50.906;6.972;2024-03-23T03:31:15;4.38;;;1.15;;
54193;SDS011;40102;50.906;6.972;2024-03-23T03:33:41;4.28;;;1.15;;
54193;SDS011;40102;50.906;6.972;2024-03-23T03:36:07;3.75;;;0.90;;
54193;SDS011;40102;50.906;6.972;2024-03-23T03:38:32;5.63;;;0.90;;
54193;SDS011;40102;50.906;6.972;2024-03-23T03:41:00;5.45;;;1.23;;
54193;SDS011;40102;50.906;6.972;2024-03-23T03:43:25;3.25;;;1.00;;
54193;SDS011;40102;50.906;6.972;2024-03-23T03:45:54;5.32;;;1.38;;
54193;SDS011;40102;50.906;6.972;2024-03-23T03:48:21;5.05;;;1.52;;
54193;SDS011;40102;50.906;6.972;2024-03-23T03:50:46;6.75;;;1.38;;
54193;SDS011;40102;50.906;6.972;2024-03-23T03:53:11;4.28;;;1.17;;
54193;SDS011;40102;50.906;6.972;2024-03-23T03:55:37;3.13;;;0.90;;
54193;SDS011;40102;50.906;6.972;2024-03-23T03:58:02;2.85;;;0.90;;
54193;SDS011;40102;50.906;6.972;2024-03-23T04:00:29;5.80;;;1.25;;
54193;SDS011;40102;50.906;6.972;2024-03-23T04:02:55;5.13;;;1.33;;
54193;SDS011;40102;50.906;6.972;2024-03-23T04:05:20;4.57;;;1.10;;
54193;SDS011;40102;50.906;6.972;2024-03-23T04:07:46;4.22;;;1.00;;
54193;SDS011;40102;50.906;6.972;2024-03-23T04:10:11;4.57;;;1.00;;
54193;SDS011;40102;50.906;6.972;2024-03-23T04:12:37;5.60;;;1.10;;
54193;SDS011;40102;50.906;6.972;2024-03-23T04:15:02;4.55;;;0.80;;
54193;SDS011;40102;50.906;6.972;2024-03-23T04:17:28;6.18;;;1.05;;
54193;SDS011;40102;50.906;6.972;2024-03-23T04:19:57;5.53;;;0.98;;
54193;SDS011;40102;50.906;6.972;2024-03-23T04:22:22;5.00;;;0.80;;
54193;SDS011;40102;50.906;6.972;2024-03-23T04:24:49;5.75;;;1.00;;
54193;SDS011;40102;50.906;6.972;2024-03-23T04:27:15;6.15;;;1.17;;
54193;SDS011;40102;50.906;6.972;2024-03-23T04:29:40;3.03;;;1.00;;
54193;SDS011;40102;50.906;6.972;2024-03-23T04:32:06;5.50;;;0.95;;
54193;SDS011;40102;50.906;6.972;2024-03-23T04:34:31;4.07;;;0.93;;
54193;SDS011;40102;50.906;6.972;2024-03-23T04:36:58;5.45;;;1.05;;
54193;SDS011;40102;50.906;6.972;2024-03-23T04:39:23;4.53;;;0.95;;
54193;SDS011;40102;50.906;6.972;2024-03-23T04:41:49;5.03;;;1.35;;
54193;SDS011;40102;50.906;6.972;2024-03-23T04:44:15;5.75;;;1.20;;
54193;SDS011;40102;50.906;6.972;2024-03-23T04:46:40;4.70;;;0.90;;
54193;SDS011;40102;50.906;6.972;2024-03-23T04:49:05;3.85;;;0.95;;
54193;SDS011;40102;50.906;6.972;2024-03-23T04:51:35;4.63;;;0.90;;
54193;SDS011;40102;50.906;6.972;2024-03-23T04:54:06;4.95;;;1.00;;
54193;SDS011;40102;50.906;6.972;2024-03-23T04:56:32;4.68;;;1.02;;
54193;SDS011;40102;50.906;6.972;2024-03-23T04:58:58;5.75;;;0.93;;
54193;SDS011;40102;50.906;6.972;2024-03-23T05:01:26;7.32;;;1.15;;
54193;SDS011;40102;50.906;6.972;2024-03-23T05:03:52;3.17;;;1.17;;
54193;SDS011;40102;50.906;6.972;2024-03-23T05:06:18;5.35;;;1.15;;
54193;SDS011;40102;50.906;6.972;2024-03-23T05:08:43;3.88;;;1.00;;
54193;SDS011;40102;50.906;6.972;2024-03-23T05:11:09;6.38;;;1.00;;
54193;SDS011;40102;50.906;6.972;2024-03-23T05:13:35;2.50;;;0.90;;
54193;SDS011;40102;50.906;6.972;2024-03-23T05:16:00;6.97;;;1.48;;
54193;SDS011;40102;50.906;6.972;2024-03-23T05:18:26;5.35;;;1.00;;
54193;SDS011;40102;50.906;6.972;2024-03-23T05:20:56;4.88;;;0.95;;
54193;SDS011;40102;50.906;6.972;2024-03-23T05:23:22;3.47;;;1.00;;
54193;SDS011;40102;50.906;6.972;2024-03-23T05:25:48;7.75;;;1.02;;
54193;SDS011;40102;50.906;6.972;2024-03-23T05:28:14;6.10;;;1.52;;
54193;SDS011;40102;50.906;6.972;2024-03-23T05:30:39;7.60;;;1.02;;
54193;SDS011;40102;50.906;6.972;2024-03-23T05:33:05;4.63;;;1.17;;
54193;SDS011;40102;50.906;6.972;2024-03-23T05:35:30;7.38;;;1.10;;
54193;SDS011;40102;50.906;6.972;2024-03-23T05:37:57;3.80;;;0.98;;
54193;SDS011;40102;50.906;6.972;2024-03-23T05:40:23;5.53;;;1.40;;
54193;SDS011;40102;50.906;6.972;2024-03-23T05:42:49;4.38;;;1.25;;
54193;SDS011;40102;50.906;6.972;2024-03-23T05:45:18;8.10;;;1.45;;
54193;SDS011;40102;50.906;6.972;2024-03-23T05:47:44;4.75;;;1.25;;
54193;SDS011;40102;50.906;6.972;2024-03-23T05:50:09;7.50;;;1.63;;
54193;SDS011;40102;50.906;6.972;2024-03-23T05:52:37;5.50;;;1.60;;
54193;SDS011;40102;50.906;6.972;2024-03-23T05:55:03;3.58;;;1.20;;
54193;SDS011;40102;50.906;6.972;2024-03-23T05:57:29;6.10;;;1.35;;
54193;SDS011;40102;50.906;6.972;2024-03-23T05:59:55;7.22;;;1.42;;
54193;SDS011;40102;50.906;6.972;2024-03-23T06:02:20;5.43;;;1.40;;
54193;SDS011;40102;50.906;6.972;2024-03-23T06:04:46;6.30;;;1.58;;
54193;SDS011;40102;50.906;6.972;2024-03-23T06:07:11;5.20;;;1.30;;
54193;SDS011;40102;50.906;6.972;2024-03-23T06:09:39;6.38;;;1.75;;
54193;SDS011;40102;50.906;6.972;2024-03-23T06:12:05;5.50;;;1.63;;
54193;SDS011;40102;50.906;6.972;2024-03-23T06:14:31;6.50;;;1.50;;
54193;SDS011;40102;50.906;6.972;2024-03-23T06:16:56;13.02;;;2.53;;
54193;SDS011;40102;50.906;6.972;2024-03-23T06:19:22;8.07;;;1.60;;
54193;SDS011;40102;50.906;6.972;2024-03-23T06:21:47;6.15;;;1.52;;
54193;SDS011;40102;50.906;6.972;2024-03-23T06:24:12;10.95;;;1.85;;
54193;SDS011;40102;50.906;6.972;2024-03-23T06:26:38;7.55;;;1.88;;
54193;SDS011;40102;50.906;6.972;2024-03-23T06:29:04;8.05;;;1.42;;
54193;SDS011;40102;50.906;6.972;2024-03-23T06:31:30;6.50;;;1.70;;
54193;SDS011;40102;50.906;6.972;2024-03-23T06:33:55;8.48;;;1.50;;
54193;SDS011;40102;50.906;6.972;2024-03-23T06:36:21;5.97;;;1.58;;
54193;SDS011;40102;50.906;6.972;2024-03-23T06:38:46;7.93;;;1.95;;
54193;SDS011;40102;50.906;6.972;2024-03-23T06:41:12;6.93;;;1.90;;
54193;SDS011;40102;50.906;6.972;2024-03-23T06:43:37;11.02;;;2.00;;
54193;SDS011;40102;50.906;6.972;2024-03-23T06:46:03;8.20;;;1.55;;
54193;SDS011;40102;50.906;6.972;2024-03-23T06:48:29;6.75;;;2.15;;
54193;SDS011;40102;50.906;6.972;2024-03-23T06:50:55;5.95;;;1.50;;
54193;SDS011;40102;50.906;6.972;2024-03-23T06:53:22;6.88;;;1.50;;
54193;SDS011;40102;50.906;6.972;2024-03-23T06:55:51;4.43;;;1.23;;
54193;SDS011;40102;50.906;6.972;2024-03-23T06:58:21;5.80;;;1.60;;
54193;SDS011;40102;50.906;6.972;2024-03-23T07:00:49;5.82;;;1.42;;
54193;SDS011;40102;50.906;6.972;2024-03-23T07:03:15;6.95;;;1.42;;
54193;SDS011;40102;50.906;6.972;2024-03-23T07:05:41;8.13;;;1.70;;
54193;SDS011;40102;50.906;6.972;2024-03-23T07:08:07;6.13;;;1.30;;
54193;SDS011;40102;50.906;6.972;2024-03-23T07:10:33;7.85;;;2.13;;
54193;SDS011;40102;50.906;6.972;2024-03-23T07:12:58;5.10;;;1.30;;
54193;SDS011;40102;50.906;6.972;2024-03-23T07:15:24;8.85;;;1.90;;
54193;SDS011;40102;50.906;6.972;2024-03-23T07:17:52;6.38;;;1.80;;
54193;SDS011;40102;50.906;6.972;2024-03-23T07:20:17;8.15;;;2.10;;
54193;SDS011;40102;50.906;6.972;2024-03-23T07:22:45;9.65;;;1.80;;
54193;SDS011;40102;50.906;6.972;2024-03-23T07:25:10;12.15;;;2.30;;
54193;SDS011;40102;50.906;6.972;2024-03-23T07:27:36;8.85;;;2.08;;
54193;SDS011;40102;50.906;6.972;2024-03-23T07:30:02;9.13;;;2.53;;
54193;SDS011;40102;50.906;6.972;2024-03-23T07:32:27;6.57;;;1.90;;
54193;SDS011;40102;50.906;6.972;2024-03-23T07:34:53;12.68;;;2.90;;
54193;SDS011;40102;50.906;6.972;2024-03-23T07:37:18;9.27;;;2.63;;
54193;SDS011;40102;50.906;6.972;2024-03-23T07:39:43;6.72;;;2.70;;
54193;SDS011;40102;50.906;6.972;2024-03-23T07:42:09;8.75;;;3.13;;
54193;SDS011;40102;50.906;6.972;2024-03-23T07:44:34;11.95;;;3.03;;
54193;SDS011;40102;50.906;6.972;2024-03-23T07:47:02;10.45;;;3.28;;
54193;SDS011;40102;50.906;6.972;2024-03-23T07:49:28;9.13;;;3.20;;
54193;SDS011;40102;50.906;6.972;2024-03-23T07:51:54;7.35;;;3.05;;
54193;SDS011;40102;50.906;6.972;2024-03-23T07:54:19;11.55;;;3.38;;
54193;SDS011;40102;50.906;6.972;2024-03-23T07:56:44;12.10;;;3.80;;
54193;SDS011;40102;50.906;6.972;2024-03-23T07:59:10;8.35;;;3.35;;
54193;SDS011;40102;50.906;6.972;2024-03-23T08:01:36;9.93;;;3.88;;
54193;SDS011;40102;50.906;6.972;2024-03-23T08:04:01;10.85;;;3.80;;
54193;SDS011;40102;50.906;6.972;2024-03-23T08:06:26;8.32;;;3.75;;
54193;SDS011;40102;50.906;6.972;2024-03-23T08:08:53;8.75;;;3.63;;
54193;SDS011;40102;50.906;6.972;2024-03-23T08:11:27;10.20;;;3.75;;
54193;SDS011;40102;50.906;6.972;2024-03-23T08:13:56;9.90;;;3.80;;
54193;SDS011;40102;50.906;6.972;2024-03-23T08:16:22;9.02;;;3.53;;
54193;SDS011;40102;50.906;6.972;2024-03-23T08:18:47;10.68;;;3.38;;
54193;SDS011;40102;50.906;6.972;2024-03-23T08:21:13;7.15;;;2.92;;
54193;SDS011;40102;50.906;6.972;2024-03-23T08:23:38;8.00;;;2.53;;
54193;SDS011;40102;50.906;6.972;2024-03-23T08:26:08;5.80;;;1.77;;
54193;SDS011;40102;50.906;6.972;2024-03-23T08:28:35;5.05;;;1.30;;
54193;SDS011;40102;50.906;6.972;2024-03-23T08:31:01;4.47;;;1.50;;
54193;SDS011;40102;50.906;6.972;2024-03-23T08:33:30;6.20;;;1.50;;
54193;SDS011;40102;50.906;6.972;2024-03-23T08:35:59;3.22;;;1.30;;
54193;SDS011;40102;50.906;6.972;2024-03-23T08:38:26;4.82;;;1.60;;
54193;SDS011;40102;50.906;6.972;2024-03-23T08:40:58;5.55;;;2.10;;
54193;SDS011;40102;50.906;6.972;2024-03-23T08:43:25;5.00;;;1.73;;
54193;SDS011;40102;50.906;6.972;2024-03-23T08:45:51;5.75;;;2.28;;
54193;SDS011;40102;50.906;6.972;2024-03-23T08:48:17;6.35;;;1.92;;
54193;SDS011;40102;50.906;6.972;2024-03-23T08:56:27;8.68;;;2.30;;
54193;SDS011;40102;50.906;6.972;2024-03-23T08:58:53;6.20;;;2.78;;
54193;SDS011;40102;50.906;6.972;2024-03-23T09:01:18;9.18;;;2.83;;
54193;SDS011;40102;50.906;6.972;2024-03-23T09:03:44;10.50;;;3.22;;
54193;SDS011;40102;50.906;6.972;2024-03-23T09:06:14;10.63;;;3.63;;
54193;SDS011;40102;50.906;6.972;2024-03-23T09:08:40;9.32;;;3.00;;
54193;SDS011;40102;50.906;6.972;2024-03-23T09:11:09;7.22;;;3.15;;
54193;SDS011;40102;50.906;6.972;2024-03-23T09:13:36;11.38;;;3.17;;
54193;SDS011;40102;50.906;6.972;2024-03-23T09:16:03;13.40;;;3.42;;
54193;SDS011;40102;50.906;6.972;2024-03-23T09:18:31;11.40;;;3.78;;
54193;SDS011;40102;50.906;6.972;2024-03-23T09:21:00;10.23;;;2.97;;
54193;SDS011;40102;50.906;6.972;2024-03-23T09:23:26;14.05;;;3.38;;
54193;SDS011;40102;50.906;6.972;2024-03-23T09:25:52;13.88;;;3.03;;
54193;SDS011;40102;50.906;6.972;2024-03-23T09:28:17;14.25;;;3.53;;
54193;SDS011;40102;50.906;6.972;2024-03-23T09:30:42;10.88;;;2.20;;
54193;SDS011;40102;50.906;6.972;2024-03-23T09:33:08;6.28;;;2.05;;
54193;SDS011;40102;50.906;6.972;2024-03-23T09:35:37;8.30;;;2.58;;
54193;SDS011;40102;50.906;6.972;2024-03-23T09:38:07;7.60;;;1.90;;
54193;SDS011;40102;50.906;6.972;2024-03-23T09:40:34;10.07;;;2.17;;
54193;SDS011;40102;50.906;6.972;2024-03-23T09:43:00;6.97;;;2.38;;
54193;SDS011;40102;50.906;6.972;2024-03-23T09:45:29;9.85;;;2.35;;
54193;SDS011;40102;50.906;6.972;2024-03-23T09:47:55;11.98;;;2.10;;
54193;SDS011;40102;50.906;6.972;2024-03-23T09:50:21;5.93;;;2.17;;
54193;SDS011;40102;50.906;6.972;2024-03-23T09:52:47;12.55;;;2.20;;
54193;SDS011;40102;50.906;6.972;2024-03-23T09:55:13;7.25;;;2.95;;
54193;SDS011;40102;50.906;6.972;2024-03-23T09:57:39;6.95;;;1.92;;
54193;SDS011;40102;50.906;6.972;2024-03-23T10:00:05;6.82;;;2.08;;
54193;SDS011;40102;50.906;6.972;2024-03-23T10:02:31;8.38;;;2.05;;
54193;SDS011;40102;50.906;6.972;2024-03-23T10:04:57;7.45;;;1.83;;
54193;SDS011;40102;50.906;6.972;2024-03-23T10:07:23;8.02;;;1.77;;
54193;SDS011;40102;50.906;6.972;2024-03-23T10:09:48;6.38;;;1.90;;
54193;SDS011;40102;50.906;6.972;2024-03-23T10:12:16;6.38;;;1.77;;
54193;SDS011;40102;50.906;6.972;2024-03-23T10:14:46;7.05;;;1.80;;
54193;SDS011;40102;50.906;6.972;2024-03-23T10:19:40;5.22;;;1.15;;
54193;SDS011;40102;50.906;6.972;2024-03-23T10:22:08;5.13;;;1.40;;
54193;SDS011;40102;50.906;6.972;2024-03-23T10:24:34;6.93;;;1.45;;
54193;SDS011;40102;50.906;6.972;2024-03-23T10:27:00;3.58;;;1.40;;
54193;SDS011;40102;50.906;6.972;2024-03-23T10:29:25;6.07;;;1.20;;
54193;SDS011;40102;50.906;6.972;2024-03-23T10:31:53;8.63;;;1.10;;
54193;SDS011;40102;50.906;6.972;2024-03-23T10:34:24;6.13;;;1.50;;
54193;SDS011;40102;50.906;6.972;2024-03-23T10:36:52;6.05;;;1.20;;
54193;SDS011;40102;50.906;6.972;2024-03-23T10:39:19;5.32;;;0.80;;
54193;SDS011;40102;50.906;6.972;2024-03-23T10:41:46;1.55;;;0.75;;
54193;SDS011;40102;50.906;6.972;2024-03-23T10:44:16;4.63;;;1.85;;
54193;SDS011;40102;50.906;6.972;2024-03-23T10:46:44;5.15;;;0.80;;
54193;SDS011;40102;50.906;6.972;2024-03-23T10:49:10;3.13;;;0.93;;
54193;SDS011;40102;50.906;6.972;2024-03-23T10:51:35;5.07;;;1.40;;
54193;SDS011;40102;50.906;6.972;2024-03-23T10:54:03;7.70;;;1.10;;
54193;SDS011;40102;50.906;6.972;2024-03-23T10:56:30;5.30;;;1.27;;
54193;SDS011;40102;50.906;6.972;2024-03-23T10:59:00;2.72;;;1.17;;
54193;SDS011;40102;50.906;6.972;2024-03-23T11:01:28;4.38;;;1.00;;
54193;SDS011;40102;50.906;6.972;2024-03-23T11:03:53;3.65;;;1.08;;
54193;SDS011;40102;50.906;6.972;2024-03-23T11:06:35;1.98;;;1.30;;
54193;SDS011;40102;50.906;6.972;2024-03-23T11:09:03;3.25;;;1.10;;
54193;SDS011;40102;50.906;6.972;2024-03-23T11:11:29;3.17;;;1.30;;
54193;SDS011;40102;50.906;6.972;2024-03-23T11:13:59;3.47;;;1.30;;
54193;SDS011;40102;50.906;6.972;2024-03-23T11:16:25;3.17;;;1.20;;
54193;SDS011;40102;50.906;6.972;2024-03-23T11:21:59;3.42;;;1.00;;
54193;SDS011;40102;50.906;6.972;2024-03-23T11:24:25;2.10;;;0.95;;
54193;SDS011;40102;50.906;6.972;2024-03-23T11:26:50;3.92;;;1.00;;
54193;SDS011;40102;50.906;6.972;2024-03-23T11:29:16;3.10;;;1.05;;
54193;SDS011;40102;50.906;6.972;2024-03-23T11:31:49;3.35;;;1.10;;
54193;SDS011;40102;50.906;6.972;2024-03-23T11:34:16;4.47;;;1.20;;
54193;SDS011;40102;50.906;6.972;2024-03-23T11:36:42;3.08;;;1.17;;
54193;SDS011;40102;50.906;6.972;2024-03-23T11:39:17;2.63;;;0.90;;
54193;SDS011;40102;50.906;6.972;2024-03-23T11:44:19;2.75;;;0.90;;
54193;SDS011;40102;50.906;6.972;2024-03-23T11:46:47;1.25;;;0.68;;
54193;SDS011;40102;50.906;6.972;2024-03-23T11:49:19;0.98;;;0.60;;
54193;SDS011;40102;50.906;6.972;2024-03-23T11:51:49;2.70;;;0.90;;
54193;SDS011;40102;50.906;6.972;2024-03-23T11:54:15;1.92;;;0.77;;
54193;SDS011;40102;50.906;6.972;2024-03-23T11:56:40;1.83;;;0.93;;
54193;SDS011;40102;50.906;6.972;2024-03-23T12:02:06;2.40;;;0.80;;
54193;SDS011;40102;50.906;6.972;2024-03-23T12:04:36;2.97;;;0.80;;
54193;SDS011;40102;50.906;6.972;2024-03-23T12:07:15;3.30;;;0.90;;
54193;SDS011;40102;50.906;6.972;2024-03-23T12:09:46;3.75;;;0.88;;
54193;SDS011;40102;50.906;6.972;2024-03-23T12:12:32;2.70;;;0.60;;
54193;SDS011;40102;50.906;6.972;2024-03-23T12:15:07;3.08;;;0.80;;
54193;SDS011;40102;50.906;6.972;2024-03-23T12:17:33;3.22;;;0.90;;
54193;SDS011;40102;50.906;6.972;2024-03-23T12:20:00;2.35;;;0.85;;
54193;SDS011;40102;50.906;6.972;2024-03-23T12:22:29;2.15;;;1.00;;
54193;SDS011;40102;50.906;6.972;2024-03-23T12:24:57;2.65;;;0.80;;
54193;SDS011;40102;50.906;6.972;2024-03-23T12:27:22;1.52;;;0.70;;
54193;SDS011;40102;50.906;6.972;2024-03-23T12:29:48;2.25;;;1.05;;
54193;SDS011;40102;50.906;6.972;2024-03-23T12:32:14;2.85;;;0.60;;
54193;SDS011;40102;50.906;6.972;2024-03-23T12:34:40;4.05;;;0.80;;
54193;SDS011;40102;50.906;6.972;2024-03-23T12:37:07;0.88;;;0.40;;
54193;SDS011;40102;50.906;6.972;2024-03-23T12:39:33;0.70;;;0.40;;
54193;SDS011;40102;50.906;6.972;2024-03-23T12:42:00;0.40;;;0.35;;
54193;SDS011;40102;50.906;6.972;2024-03-23T12:44:25;1.38;;;0.45;;
54193;SDS011;40102;50.906;6.972;2024-03-23T12:46:54;2.00;;;0.50;;
54193;SDS011;40102;50.906;6.972;2024-03-23T12:49:19;0.75;;;0.50;;
54193;SDS011;40102;50.906;6.972;2024-03-23T12:51:52;0.93;;;0.32;;
54193;SDS011;40102;50.906;6.972;2024-03-23T12:54:19;2.05;;;0.57;;
54193;SDS011;40102;50.906;6.972;2024-03-23T12:56:45;1.15;;;0.40;;
54193;SDS011;40102;50.906;6.972;2024-03-23T12:59:11;0.55;;;0.40;;
54193;SDS011;40102;50.906;6.972;2024-03-23T13:01:37;0.95;;;0.30;;
54193;SDS011;40102;50.906;6.972;2024-03-23T13:04:03;1.38;;;0.40;;
54193;SDS011;40102;50.906;6.972;2024-03-23T13:06:29;2.83;;;0.40;;
54193;SDS011;40102;50.906;6.972;2024-03-23T13:08:58;0.95;;;0.35;;
54193;SDS011;40102;50.906;6.972;2024-03-23T13:11:24;0.57;;;0.40;;
54193;SDS011;40102;50.906;6.972;2024-03-23T13:13:50;1.55;;;0.57;;
54193;SDS011;40102;50.906;6.972;2024-03-23T13:16:16;0.77;;;0.35;;
54193;SDS011;40102;50.906;6.972;2024-03-23T13:18:41;1.25;;;0.52;;
54193;SDS011;40102;50.906;6.972;2024-03-23T13:21:07;3.35;;;0.88;;
54193;SDS011;40102;50.906;6.972;2024-03-23T13:23:32;1.13;;;0.50;;
54193;SDS011;40102;50.906;6.972;2024-03-23T13:26:00;0.55;;;0.50;;
54193;SDS011;40102;50.906;6.972;2024-03-23T13:28:26;1.55;;;0.60;;
54193;SDS011;40102;50.906;6.972;2024-03-23T13:30:52;2.17;;;0.77;;
54193;SDS011;40102;50.906;6.972;2024-03-23T13:33:18;4.28;;;0.90;;
54193;SDS011;40102;50.906;6.972;2024-03-23T13:35:53;6.15;;;1.35;;
54193;SDS011;40102;50.906;6.972;2024-03-23T13:38:21;2.88;;;1.13;;
54193;SDS011;40102;50.906;6.972;2024-03-23T13:40:56;4.70;;;2.35;;
54193;SDS011;40102;50.906;6.972;2024-03-23T13:43:22;2.97;;;0.82;;
54193;SDS011;40102;50.906;6.972;2024-03-23T13:45:49;3.00;;;1.05;;
54193;SDS011;40102;50.906;6.972;2024-03-23T13:48:19;2.47;;;1.00;;
54193;SDS011;40102;50.906;6.972;2024-03-23T13:50:45;4.72;;;1.13;;
54193;SDS011;40102;50.906;6.972;2024-03-23T13:53:13;1.80;;;1.00;;
54193;SDS011;40102;50.906;6.972;2024-03-23T13:55:45;2.97;;;1.00;;
54193;SDS011;40102;50.906;6.972;2024-03-23T13:58:13;6.45;;;1.73;;
54193;SDS011;40102;50.906;6.972;2024-03-23T14:00:39;3.53;;;1.30;;
54193;SDS011;40102;50.906;6.972;2024-03-23T14:03:05;4.75;;;1.60;;
54193;SDS011;40102;50.906;6.972;2024-03-23T14:05:30;2.95;;;1.20;;
54193;SDS011;40102;50.906;6.972;2024-03-23T14:07:56;1.15;;;0.70;;
54193;SDS011;40102;50.906;6.972;2024-03-23T14:10:21;1.92;;;0.50;;
54193;SDS011;40102;50.906;6.972;2024-03-23T14:12:46;3.13;;;0.80;;
54193;SDS011;40102;50.906;6.972;2024-03-23T14:15:12;2.03;;;0.60;;
54193;SDS011;40102;50.906;6.972;2024-03-23T14:17:37;3.95;;;0.70;;
54193;SDS011;40102;50.906;6.972;2024-03-23T14:20:04;5.97;;;1.35;;
54193;SDS011;40102;50.906;6.972;2024-03-23T14:22:30;1.42;;;0.55;;
54193;SDS011;40102;50.906;6.972;2024-03-23T14:24:57;1.60;;;0.70;;
54193;SDS011;40102;50.906;6.972;2024-03-23T14:27:22;3.58;;;1.02;;
54193;SDS011;40102;50.906;6.972;2024-03-23T14:29:48;4.53;;;0.95;;
54193;SDS011;40102;50.906;6.972;2024-03-23T14:32:13;1.58;;;0.90;;
54193;SDS011;40102;50.906;6.972;2024-03-23T14:34:39;1.73;;;0.70;;
54193;SDS011;40102;50.906;6.972;2024-03-23T14:37:05;0.98;;;0.63;;
54193;SDS011;40102;50.906;6.972;2024-03-23T14:39:31;2.80;;;0.70;;
54193;SDS011;40102;50.906;6.972;2024-03-23T14:41:59;1.42;;;0.70;;
54193;SDS011;40102;50.906;6.972;2024-03-23T14:44:26;0.82;;;0.80;;
54193;SDS011;40102;50.906;6.972;2024-03-23T14:46:51;2.53;;;0.80;;
54193;SDS011;40102;50.906;6.972;2024-03-23T14:49:16;3.38;;;0.95;;
54193;SDS011;40102;50.906;6.972;2024-03-23T14:51:42;4.70;;;1.05;;
54193;SDS011;40102;50.906;6.972;2024-03-23T14:54:07;1.88;;;0.70;;
54193;SDS011;40102;50.906;6.972;2024-03-23T14:56:33;1.63;;;0.70;;
54193;SDS011;40102;50.906;6.972;2024-03-23T14:58:59;3.63;;;1.27;;
54193;SDS011;40102;50.906;6.972;2024-03-23T15:01:25;2.17;;;0.50;;
54193;SDS011;40102;50.906;6.972;2024-03-23T15:03:50;1.33;;;0.70;;
54193;SDS011;40102;50.906;6.972;2024-03-23T15:06:18;0.93;;;0.70;;
54193;SDS011;40102;50.906;6.972;2024-03-23T15:08:44;3.85;;;1.52;;
54193;SDS011;40102;50.906;6.972;2024-03-23T15:11:09;5.85;;;1.70;;
54193;SDS011;40102;50.906;6.972;2024-03-23T15:13:35;3.40;;;1.30;;
54193;SDS011;40102;50.906;6.972;2024-03-23T15:16:02;1.77;;;0.80;;
54193;SDS011;40102;50.906;6.972;2024-03-23T15:18:29;1.33;;;0.75;;
54193;SDS011;40102;50.906;6.972;2024-03-23T15:21:01;1.95;;;0.60;;
54193;SDS011;40102;50.906;6.972;2024-03-23T15:23:28;2.50;;;0.60;;
54193;SDS011;40102;50.906;6.972;2024-03-23T15:25:57;1.77;;;0.70;;
54193;SDS011;40102;50.906;6.972;2024-03-23T15:28:24;1.33;;;0.87;;
54193;SDS011;40102;50.906;6.972;2024-03-23T15:30:52;2.63;;;0.80;;
54193;SDS011;40102;50.906;6.972;2024-03-23T15:33:17;0.95;;;0.85;;
54193;SDS011;40102;50.906;6.972;2024-03-23T15:35:43;0.95;;;0.60;;
54193;SDS011;40102;50.906;6.972;2024-03-23T15:38:08;3.63;;;0.95;;
54193;SDS011;40102;50.906;6.972;2024-03-23T15:40:34;1.15;;;0.57;;
54193;SDS011;40102;50.906;6.972;2024-03-23T15:42:59;2.47;;;0.80;;
54193;SDS011;40102;50.906;6.972;2024-03-23T15:45:25;2.60;;;0.80;;
54193;SDS011;40102;50.906;6.972;2024-03-23T15:47:51;1.45;;;0.80;;
54193;SDS011;40102;50.906;6.972;2024-03-23T15:50:17;1.05;;;0.68;;
54193;SDS011;40102;50.906;6.972;2024-03-23T15:52:42;1.55;;;0.60;;